sensor_id;sensor_type;location;lat;lon;timestamp;P1;durP1;ratioP1;P2;durP2;ratioP2
8656;SDS011;4366;50.764;7.184;2023-11-19T00:03:44;0.60;;;0.60;;
8656;SDS011;4366;50.764;7.184;2023-11-19T00:08:46;0.70;;;0.70;;
8656;SDS011;4366;50.764;7.184;2023-11-19T00:13:48;0.80;;;0.80;;
8656;SDS011;4366;50.764;7.184;2023-11-19T00:18:49;0.87;;;0.87;;
8656;SDS011;4366;50.764;7.184;2023-11-19T00:23:51;0.60;;;0.60;;
8656;SDS011;4366;50.764;7.184;2023-11-19T00:28:53;0.70;;;0.70;;
8656;SDS011;4366;50.764;7.184;2023-11-19T00:33:55;0.77;;;0.77;;
8656;SDS011;4366;50.764;7.184;2023-11-19T00:38:57;0.60;;;0.60;;
8656;SDS011;4366;50.764;7.184;2023-11-19T00:43:59;0.67;;;0.67;;
8656;SDS011;4366;50.764;7.184;2023-11-19T00:49:01;1.40;;;0.80;;
8656;SDS011;4366;50.764;7.184;2023-11-19T00:54:03;0.60;;;0.60;;
8656;SDS011;4366;50.764;7.184;2023-11-19T00:59:05;0.60;;;0.60;;
8656;SDS011;4366;50.764;7.184;2023-11-19T01:04:07;0.60;;;0.60;;
8656;SDS011;4366;50.764;7.184;2023-11-19T01:09:10;0.60;;;0.60;;
8656;SDS011;4366;50.764;7.184;2023-11-19T01:14:12;0.77;;;0.77;;
8656;SDS011;4366;50.764;7.184;2023-11-19T01:19:13;0.70;;;0.70;;
8656;SDS011;4366;50.764;7.184;2023-11-19T01:24:18;0.97;;;0.97;;
8656;SDS011;4366;50.764;7.184;2023-11-19T01:29:20;0.70;;;0.70;;
8656;SDS011;4366;50.764;7.184;2023-11-19T01:34:22;0.70;;;0.70;;
8656;SDS011;4366;50.764;7.184;2023-11-19T01:39:24;0.70;;;0.70;;
8656;SDS011;4366;50.764;7.184;2023-11-19T01:44:26;0.60;;;0.60;;
8656;SDS011;4366;50.764;7.184;2023-11-19T01:49:27;0.63;;;0.63;;
8656;SDS011;4366;50.764;7.184;2023-11-19T01:54:30;0.60;;;0.60;;
8656;SDS011;4366;50.764;7.184;2023-11-19T01:59:32;0.80;;;0.80;;
8656;SDS011;4366;50.764;7.184;2023-11-19T02:04:34;0.70;;;0.70;;
8656;SDS011;4366;50.764;7.184;2023-11-19T02:09:37;0.67;;;0.67;;
8656;SDS011;4366;50.764;7.184;2023-11-19T02:14:39;0.60;;;0.60;;
8656;SDS011;4366;50.764;7.184;2023-11-19T02:19:42;0.53;;;0.53;;
8656;SDS011;4366;50.764;7.184;2023-11-19T02:24:45;0.50;;;0.50;;
8656;SDS011;4366;50.764;7.184;2023-11-19T02:29:52;0.67;;;0.67;;
8656;SDS011;4366;50.764;7.184;2023-11-19T02:34:55;0.50;;;0.50;;
8656;SDS011;4366;50.764;7.184;2023-11-19T02:40:08;0.60;;;0.60;;
8656;SDS011;4366;50.764;7.184;2023-11-19T02:45:11;0.60;;;0.60;;
8656;SDS011;4366;50.764;7.184;2023-11-19T02:50:17;0.60;;;0.60;;
8656;SDS011;4366;50.764;7.184;2023-11-19T02:55:26;0.60;;;0.60;;
8656;SDS011;4366;50.764;7.184;2023-11-19T03:00:31;0.50;;;0.50;;
8656;SDS011;4366;50.764;7.184;2023-11-19T03:05:37;0.60;;;0.60;;
8656;SDS011;4366;50.764;7.184;2023-11-19T03:10:39;0.63;;;0.63;;
8656;SDS011;4366;50.764;7.184;2023-11-19T03:15:40;0.60;;;0.60;;
8656;SDS011;4366;50.764;7.184;2023-11-19T03:20:43;0.73;;;0.73;;
8656;SDS011;4366;50.764;7.184;2023-11-19T03:25:45;0.60;;;0.60;;
8656;SDS011;4366;50.764;7.184;2023-11-19T03:30:47;0.70;;;0.70;;
8656;SDS011;4366;50.764;7.184;2023-11-19T03:35:49;0.70;;;0.70;;
8656;SDS011;4366;50.764;7.184;2023-11-19T03:40:53;0.60;;;0.60;;
8656;SDS011;4366;50.764;7.184;2023-11-19T03:45:55;2.73;;;1.33;;
8656;SDS011;4366;50.764;7.184;2023-11-19T03:50:56;0.80;;;0.80;;
8656;SDS011;4366;50.764;7.184;2023-11-19T03:55:58;0.87;;;0.80;;
8656;SDS011;4366;50.764;7.184;2023-11-19T04:01:00;0.80;;;0.80;;
8656;SDS011;4366;50.764;7.184;2023-11-19T04:06:02;2.37;;;1.20;;
8656;SDS011;4366;50.764;7.184;2023-11-19T04:11:04;0.77;;;0.77;;
8656;SDS011;4366;50.764;7.184;2023-11-19T04:16:05;0.93;;;0.80;;
8656;SDS011;4366;50.764;7.184;2023-11-19T04:21:08;1.00;;;0.70;;
8656;SDS011;4366;50.764;7.184;2023-11-19T04:26:09;1.03;;;0.93;;
8656;SDS011;4366;50.764;7.184;2023-11-19T04:31:12;1.13;;;1.00;;
8656;SDS011;4366;50.764;7.184;2023-11-19T04:36:13;0.80;;;0.80;;
8656;SDS011;4366;50.764;7.184;2023-11-19T04:41:21;0.80;;;0.80;;
8656;SDS011;4366;50.764;7.184;2023-11-19T04:46:22;0.90;;;0.90;;
8656;SDS011;4366;50.764;7.184;2023-11-19T04:51:26;1.53;;;1.00;;
8656;SDS011;4366;50.764;7.184;2023-11-19T04:56:28;0.97;;;0.97;;
8656;SDS011;4366;50.764;7.184;2023-11-19T05:01:29;1.30;;;1.00;;
8656;SDS011;4366;50.764;7.184;2023-11-19T05:06:31;1.00;;;1.00;;
8656;SDS011;4366;50.764;7.184;2023-11-19T05:11:33;0.93;;;0.93;;
8656;SDS011;4366;50.764;7.184;2023-11-19T05:16:35;2.50;;;1.23;;
8656;SDS011;4366;50.764;7.184;2023-11-19T05:21:37;1.40;;;1.30;;
8656;SDS011;4366;50.764;7.184;2023-11-19T05:26:39;1.37;;;1.07;;
8656;SDS011;4366;50.764;7.184;2023-11-19T05:31:42;2.13;;;1.33;;
8656;SDS011;4366;50.764;7.184;2023-11-19T05:36:45;1.50;;;1.10;;
8656;SDS011;4366;50.764;7.184;2023-11-19T05:41:47;4.47;;;2.10;;
8656;SDS011;4366;50.764;7.184;2023-11-19T05:46:49;1.43;;;1.30;;
8656;SDS011;4366;50.764;7.184;2023-11-19T05:51:50;2.67;;;1.30;;
8656;SDS011;4366;50.764;7.184;2023-11-19T05:56:53;2.30;;;1.33;;
8656;SDS011;4366;50.764;7.184;2023-11-19T06:01:57;1.87;;;1.50;;
8656;SDS011;4366;50.764;7.184;2023-11-19T06:06:59;3.33;;;1.50;;
8656;SDS011;4366;50.764;7.184;2023-11-19T06:12:01;6.00;;;1.30;;
8656;SDS011;4366;50.764;7.184;2023-11-19T06:17:07;5.07;;;1.30;;
8656;SDS011;4366;50.764;7.184;2023-11-19T06:22:10;4.73;;;1.43;;
8656;SDS011;4366;50.764;7.184;2023-11-19T06:27:12;5.47;;;1.60;;
8656;SDS011;4366;50.764;7.184;2023-11-19T06:32:14;1.87;;;1.43;;
8656;SDS011;4366;50.764;7.184;2023-11-19T06:37:16;5.97;;;1.60;;
8656;SDS011;4366;50.764;7.184;2023-11-19T06:42:17;6.13;;;1.83;;
8656;SDS011;4366;50.764;7.184;2023-11-19T06:47:19;5.93;;;1.70;;
8656;SDS011;4366;50.764;7.184;2023-11-19T06:52:22;3.07;;;1.47;;
8656;SDS011;4366;50.764;7.184;2023-11-19T06:57:23;3.33;;;1.50;;
8656;SDS011;4366;50.764;7.184;2023-11-19T07:02:25;4.73;;;1.63;;
8656;SDS011;4366;50.764;7.184;2023-11-19T07:07:28;4.63;;;1.70;;
8656;SDS011;4366;50.764;7.184;2023-11-19T07:12:30;4.27;;;1.60;;
8656;SDS011;4366;50.764;7.184;2023-11-19T07:17:32;3.77;;;1.70;;
8656;SDS011;4366;50.764;7.184;2023-11-19T07:22:34;5.30;;;2.03;;
8656;SDS011;4366;50.764;7.184;2023-11-19T07:27:36;5.57;;;1.50;;
8656;SDS011;4366;50.764;7.184;2023-11-19T07:32:38;4.40;;;1.80;;
8656;SDS011;4366;50.764;7.184;2023-11-19T07:37:40;3.60;;;1.83;;
8656;SDS011;4366;50.764;7.184;2023-11-19T07:42:43;4.67;;;1.70;;
8656;SDS011;4366;50.764;7.184;2023-11-19T07:47:44;4.20;;;1.77;;
8656;SDS011;4366;50.764;7.184;2023-11-19T07:52:46;5.00;;;2.20;;
8656;SDS011;4366;50.764;7.184;2023-11-19T07:57:48;5.57;;;1.90;;
8656;SDS011;4366;50.764;7.184;2023-11-19T08:02:50;5.83;;;1.80;;
8656;SDS011;4366;50.764;7.184;2023-11-19T08:07:52;2.27;;;1.60;;
8656;SDS011;4366;50.764;7.184;2023-11-19T08:12:54;5.93;;;1.50;;
8656;SDS011;4366;50.764;7.184;2023-11-19T08:17:56;5.07;;;1.97;;
8656;SDS011;4366;50.764;7.184;2023-11-19T08:22:57;3.80;;;2.10;;
8656;SDS011;4366;50.764;7.184;2023-11-19T08:27:59;3.03;;;1.60;;
8656;SDS011;4366;50.764;7.184;2023-11-19T08:33:01;2.63;;;1.60;;
8656;SDS011;4366;50.764;7.184;2023-11-19T08:38:07;6.20;;;1.63;;
8656;SDS011;4366;50.764;7.184;2023-11-19T08:43:08;4.63;;;1.70;;
8656;SDS011;4366;50.764;7.184;2023-11-19T08:48:10;6.23;;;1.90;;
8656;SDS011;4366;50.764;7.184;2023-11-19T08:53:12;6.17;;;1.70;;
8656;SDS011;4366;50.764;7.184;2023-11-19T08:58:14;7.00;;;1.80;;
8656;SDS011;4366;50.764;7.184;2023-11-19T09:03:15;4.17;;;1.70;;
8656;SDS011;4366;50.764;7.184;2023-11-19T09:08:17;2.37;;;1.50;;
8656;SDS011;4366;50.764;7.184;2023-11-19T09:13:19;3.40;;;1.50;;
8656;SDS011;4366;50.764;7.184;2023-11-19T09:18:21;6.20;;;1.60;;
8656;SDS011;4366;50.764;7.184;2023-11-19T09:23:22;5.60;;;1.70;;
8656;SDS011;4366;50.764;7.184;2023-11-19T09:28:27;7.17;;;1.73;;
8656;SDS011;4366;50.764;7.184;2023-11-19T09:33:29;7.17;;;2.30;;
8656;SDS011;4366;50.764;7.184;2023-11-19T09:38:31;8.03;;;2.03;;
8656;SDS011;4366;50.764;7.184;2023-11-19T09:43:32;4.33;;;1.70;;
8656;SDS011;4366;50.764;7.184;2023-11-19T09:48:34;4.73;;;1.70;;
8656;SDS011;4366;50.764;7.184;2023-11-19T09:53:36;5.63;;;1.90;;
8656;SDS011;4366;50.764;7.184;2023-11-19T09:58:39;5.23;;;1.67;;
8656;SDS011;4366;50.764;7.184;2023-11-19T10:03:41;4.47;;;1.63;;
8656;SDS011;4366;50.764;7.184;2023-11-19T10:08:45;5.00;;;2.07;;
8656;SDS011;4366;50.764;7.184;2023-11-19T10:13:47;8.20;;;1.93;;
8656;SDS011;4366;50.764;7.184;2023-11-19T10:18:49;6.27;;;1.73;;
8656;SDS011;4366;50.764;7.184;2023-11-19T10:23:52;2.97;;;1.83;;
8656;SDS011;4366;50.764;7.184;2023-11-19T10:28:55;6.77;;;1.80;;
8656;SDS011;4366;50.764;7.184;2023-11-19T10:33:57;7.07;;;1.80;;
8656;SDS011;4366;50.764;7.184;2023-11-19T10:38:59;5.37;;;1.70;;
8656;SDS011;4366;50.764;7.184;2023-11-19T10:44:00;5.67;;;1.80;;
8656;SDS011;4366;50.764;7.184;2023-11-19T10:49:02;3.67;;;1.90;;
8656;SDS011;4366;50.764;7.184;2023-11-19T10:54:05;5.80;;;1.73;;
8656;SDS011;4366;50.764;7.184;2023-11-19T10:59:07;7.17;;;1.80;;
8656;SDS011;4366;50.764;7.184;2023-11-19T11:04:17;6.43;;;1.73;;
8656;SDS011;4366;50.764;7.184;2023-11-19T11:09:22;4.50;;;1.90;;
8656;SDS011;4366;50.764;7.184;2023-11-19T11:14:25;3.87;;;1.57;;
8656;SDS011;4366;50.764;7.184;2023-11-19T11:19:28;3.83;;;1.47;;
8656;SDS011;4366;50.764;7.184;2023-11-19T11:40:36;6.33;;;1.90;;
8656;SDS011;4366;50.764;7.184;2023-11-19T11:45:38;4.93;;;1.60;;
8656;SDS011;4366;50.764;7.184;2023-11-19T11:50:48;7.67;;;1.57;;
8656;SDS011;4366;50.764;7.184;2023-11-19T11:55:52;8.60;;;2.03;;
8656;SDS011;4366;50.764;7.184;2023-11-19T12:00:57;1.30;;;1.10;;
8656;SDS011;4366;50.764;7.184;2023-11-19T12:06:00;2.67;;;1.20;;
8656;SDS011;4366;50.764;7.184;2023-11-19T12:11:02;5.57;;;1.53;;
8656;SDS011;4366;50.764;7.184;2023-11-19T12:21:08;5.50;;;1.47;;
8656;SDS011;4366;50.764;7.184;2023-11-19T12:26:31;2.83;;;1.20;;
8656;SDS011;4366;50.764;7.184;2023-11-19T12:31:34;4.13;;;1.53;;
8656;SDS011;4366;50.764;7.184;2023-11-19T12:36:38;6.73;;;1.90;;
8656;SDS011;4366;50.764;7.184;2023-11-19T12:41:49;4.83;;;1.53;;
8656;SDS011;4366;50.764;7.184;2023-11-19T12:47:06;3.60;;;1.17;;
8656;SDS011;4366;50.764;7.184;2023-11-19T12:52:12;2.83;;;1.90;;
8656;SDS011;4366;50.764;7.184;2023-11-19T12:57:14;5.27;;;2.00;;
8656;SDS011;4366;50.764;7.184;2023-11-19T13:02:16;4.57;;;1.57;;
8656;SDS011;4366;50.764;7.184;2023-11-19T13:07:21;2.17;;;1.40;;
8656;SDS011;4366;50.764;7.184;2023-11-19T13:12:23;3.13;;;1.37;;
8656;SDS011;4366;50.764;7.184;2023-11-19T13:17:25;4.07;;;1.33;;
8656;SDS011;4366;50.764;7.184;2023-11-19T13:22:27;4.17;;;1.70;;
8656;SDS011;4366;50.764;7.184;2023-11-19T13:27:28;3.30;;;1.33;;
8656;SDS011;4366;50.764;7.184;2023-11-19T13:32:30;4.43;;;1.70;;
8656;SDS011;4366;50.764;7.184;2023-11-19T13:37:32;3.27;;;1.67;;
8656;SDS011;4366;50.764;7.184;2023-11-19T13:42:34;2.37;;;1.33;;
8656;SDS011;4366;50.764;7.184;2023-11-19T13:47:36;6.93;;;1.60;;
8656;SDS011;4366;50.764;7.184;2023-11-19T13:52:39;2.23;;;1.50;;
8656;SDS011;4366;50.764;7.184;2023-11-19T13:57:43;4.10;;;1.47;;
8656;SDS011;4366;50.764;7.184;2023-11-19T14:02:48;5.23;;;1.47;;
8656;SDS011;4366;50.764;7.184;2023-11-19T14:07:50;2.77;;;1.77;;
8656;SDS011;4366;50.764;7.184;2023-11-19T14:12:53;3.60;;;1.77;;
8656;SDS011;4366;50.764;7.184;2023-11-19T14:17:55;5.43;;;1.73;;
8656;SDS011;4366;50.764;7.184;2023-11-19T14:22:57;4.13;;;1.40;;
8656;SDS011;4366;50.764;7.184;2023-11-19T14:27:59;3.67;;;1.50;;
8656;SDS011;4366;50.764;7.184;2023-11-19T14:33:00;2.30;;;1.20;;
8656;SDS011;4366;50.764;7.184;2023-11-19T14:38:02;2.37;;;1.47;;
8656;SDS011;4366;50.764;7.184;2023-11-19T14:43:06;5.03;;;1.90;;
8656;SDS011;4366;50.764;7.184;2023-11-19T14:48:11;5.00;;;1.80;;
8656;SDS011;4366;50.764;7.184;2023-11-19T14:53:13;4.90;;;1.70;;
8656;SDS011;4366;50.764;7.184;2023-11-19T14:58:15;3.87;;;1.27;;
8656;SDS011;4366;50.764;7.184;2023-11-19T15:03:18;3.17;;;1.60;;
8656;SDS011;4366;50.764;7.184;2023-11-19T15:08:21;2.77;;;1.03;;
8656;SDS011;4366;50.764;7.184;2023-11-19T15:13:22;4.70;;;1.47;;
8656;SDS011;4366;50.764;7.184;2023-11-19T15:18:24;4.77;;;1.27;;
8656;SDS011;4366;50.764;7.184;2023-11-19T15:23:26;4.10;;;1.43;;
8656;SDS011;4366;50.764;7.184;2023-11-19T15:28:30;3.90;;;1.33;;
8656;SDS011;4366;50.764;7.184;2023-11-19T15:33:32;5.37;;;1.77;;
8656;SDS011;4366;50.764;7.184;2023-11-19T15:38:34;2.47;;;1.23;;
8656;SDS011;4366;50.764;7.184;2023-11-19T15:43:53;6.27;;;1.70;;
8656;SDS011;4366;50.764;7.184;2023-11-19T15:48:56;2.67;;;1.40;;
8656;SDS011;4366;50.764;7.184;2023-11-19T15:53:57;2.30;;;1.23;;
8656;SDS011;4366;50.764;7.184;2023-11-19T15:59:00;2.63;;;1.33;;
8656;SDS011;4366;50.764;7.184;2023-11-19T16:04:01;6.07;;;1.80;;
8656;SDS011;4366;50.764;7.184;2023-11-19T16:09:03;3.87;;;1.70;;
8656;SDS011;4366;50.764;7.184;2023-11-19T16:14:05;4.30;;;1.80;;
8656;SDS011;4366;50.764;7.184;2023-11-19T16:19:07;4.33;;;1.87;;
8656;SDS011;4366;50.764;7.184;2023-11-19T16:24:08;4.23;;;1.33;;
8656;SDS011;4366;50.764;7.184;2023-11-19T16:29:10;2.80;;;1.63;;
8656;SDS011;4366;50.764;7.184;2023-11-19T16:34:12;3.53;;;1.50;;
8656;SDS011;4366;50.764;7.184;2023-11-19T16:39:14;2.33;;;1.67;;
8656;SDS011;4366;50.764;7.184;2023-11-19T16:44:17;3.80;;;1.67;;
8656;SDS011;4366;50.764;7.184;2023-11-19T16:49:18;4.33;;;1.60;;
8656;SDS011;4366;50.764;7.184;2023-11-19T16:54:20;5.23;;;1.80;;
8656;SDS011;4366;50.764;7.184;2023-11-19T16:59:23;2.70;;;1.33;;
8656;SDS011;4366;50.764;7.184;2023-11-19T17:04:24;5.77;;;1.80;;
8656;SDS011;4366;50.764;7.184;2023-11-19T17:09:29;4.33;;;1.53;;
8656;SDS011;4366;50.764;7.184;2023-11-19T17:14:30;3.80;;;1.73;;
8656;SDS011;4366;50.764;7.184;2023-11-19T17:19:35;3.70;;;1.70;;
8656;SDS011;4366;50.764;7.184;2023-11-19T17:24:37;4.23;;;1.80;;
8656;SDS011;4366;50.764;7.184;2023-11-19T17:29:40;2.40;;;1.50;;
8656;SDS011;4366;50.764;7.184;2023-11-19T17:34:42;2.00;;;1.87;;
8656;SDS011;4366;50.764;7.184;2023-11-19T17:39:44;4.33;;;1.70;;
8656;SDS011;4366;50.764;7.184;2023-11-19T17:44:46;4.23;;;1.50;;
8656;SDS011;4366;50.764;7.184;2023-11-19T17:49:48;2.67;;;1.63;;
8656;SDS011;4366;50.764;7.184;2023-11-19T17:54:50;3.70;;;1.50;;
8656;SDS011;4366;50.764;7.184;2023-11-19T17:59:51;4.03;;;1.90;;
8656;SDS011;4366;50.764;7.184;2023-11-19T18:04:53;3.77;;;1.47;;
8656;SDS011;4366;50.764;7.184;2023-11-19T18:09:57;4.23;;;1.83;;
8656;SDS011;4366;50.764;7.184;2023-11-19T18:14:59;7.03;;;2.20;;
8656;SDS011;4366;50.764;7.184;2023-11-19T18:20:01;7.20;;;1.90;;
8656;SDS011;4366;50.764;7.184;2023-11-19T18:25:04;4.77;;;1.70;;
8656;SDS011;4366;50.764;7.184;2023-11-19T18:30:06;1.47;;;1.37;;
8656;SDS011;4366;50.764;7.184;2023-11-19T18:35:09;4.07;;;1.60;;
8656;SDS011;4366;50.764;7.184;2023-11-19T18:40:12;4.90;;;1.37;;
8656;SDS011;4366;50.764;7.184;2023-11-19T18:45:22;3.00;;;1.40;;
8656;SDS011;4366;50.764;7.184;2023-11-19T18:50:24;2.40;;;1.57;;
8656;SDS011;4366;50.764;7.184;2023-11-19T18:55:40;4.03;;;1.37;;
8656;SDS011;4366;50.764;7.184;2023-11-19T19:00:42;4.33;;;1.73;;
8656;SDS011;4366;50.764;7.184;2023-11-19T19:05:46;1.10;;;1.00;;
8656;SDS011;4366;50.764;7.184;2023-11-19T19:10:49;3.03;;;1.47;;
8656;SDS011;4366;50.764;7.184;2023-11-19T19:15:51;2.67;;;1.30;;
8656;SDS011;4366;50.764;7.184;2023-11-19T19:20:53;3.83;;;1.20;;
8656;SDS011;4366;50.764;7.184;2023-11-19T19:25:55;4.73;;;1.70;;
8656;SDS011;4366;50.764;7.184;2023-11-19T19:30:57;2.37;;;1.30;;
8656;SDS011;4366;50.764;7.184;2023-11-19T19:35:58;2.90;;;1.17;;
8656;SDS011;4366;50.764;7.184;2023-11-19T19:41:00;1.00;;;0.90;;
8656;SDS011;4366;50.764;7.184;2023-11-19T19:46:06;5.47;;;1.87;;
8656;SDS011;4366;50.764;7.184;2023-11-19T19:51:10;6.23;;;1.53;;
8656;SDS011;4366;50.764;7.184;2023-11-19T19:56:12;2.70;;;1.17;;
8656;SDS011;4366;50.764;7.184;2023-11-19T20:01:15;1.40;;;1.20;;
8656;SDS011;4366;50.764;7.184;2023-11-19T20:06:17;2.23;;;1.50;;
8656;SDS011;4366;50.764;7.184;2023-11-19T20:11:22;1.57;;;1.20;;
8656;SDS011;4366;50.764;7.184;2023-11-19T20:16:24;2.93;;;1.30;;
8656;SDS011;4366;50.764;7.184;2023-11-19T20:21:25;1.77;;;1.10;;
8656;SDS011;4366;50.764;7.184;2023-11-19T20:26:29;1.40;;;1.00;;
8656;SDS011;4366;50.764;7.184;2023-11-19T20:31:31;2.07;;;1.40;;
8656;SDS011;4366;50.764;7.184;2023-11-19T20:36:33;2.53;;;1.10;;
8656;SDS011;4366;50.764;7.184;2023-11-19T20:41:35;2.77;;;1.00;;
8656;SDS011;4366;50.764;7.184;2023-11-19T20:46:36;1.40;;;0.87;;
8656;SDS011;4366;50.764;7.184;2023-11-19T20:51:39;1.93;;;1.07;;
8656;SDS011;4366;50.764;7.184;2023-11-19T20:56:41;3.70;;;1.53;;
8656;SDS011;4366;50.764;7.184;2023-11-19T21:01:43;2.90;;;1.07;;
8656;SDS011;4366;50.764;7.184;2023-11-19T21:06:45;2.23;;;1.40;;
8656;SDS011;4366;50.764;7.184;2023-11-19T21:11:51;2.10;;;0.93;;
8656;SDS011;4366;50.764;7.184;2023-11-19T21:16:52;2.13;;;1.03;;
8656;SDS011;4366;50.764;7.184;2023-11-19T21:21:55;2.37;;;1.00;;
8656;SDS011;4366;50.764;7.184;2023-11-19T21:26:57;2.73;;;1.03;;
8656;SDS011;4366;50.764;7.184;2023-11-19T21:31:58;2.53;;;1.13;;
8656;SDS011;4366;50.764;7.184;2023-11-19T21:37:00;1.33;;;1.00;;
8656;SDS011;4366;50.764;7.184;2023-11-19T21:42:02;2.30;;;0.97;;
8656;SDS011;4366;50.764;7.184;2023-11-19T21:47:04;1.00;;;1.00;;
8656;SDS011;4366;50.764;7.184;2023-11-19T21:52:06;0.70;;;0.60;;
8656;SDS011;4366;50.764;7.184;2023-11-19T21:57:08;1.60;;;0.73;;
8656;SDS011;4366;50.764;7.184;2023-11-19T22:02:10;2.07;;;0.90;;
8656;SDS011;4366;50.764;7.184;2023-11-19T22:07:11;1.13;;;1.03;;
8656;SDS011;4366;50.764;7.184;2023-11-19T22:12:13;2.73;;;0.70;;
8656;SDS011;4366;50.764;7.184;2023-11-19T22:17:15;1.63;;;0.83;;
8656;SDS011;4366;50.764;7.184;2023-11-19T22:22:17;0.73;;;0.73;;
8656;SDS011;4366;50.764;7.184;2023-11-19T22:27:18;0.70;;;0.70;;
8656;SDS011;4366;50.764;7.184;2023-11-19T22:32:20;0.60;;;0.60;;
8656;SDS011;4366;50.764;7.184;2023-11-19T22:37:25;1.80;;;0.90;;
8656;SDS011;4366;50.764;7.184;2023-11-19T22:42:26;0.97;;;0.70;;
8656;SDS011;4366;50.764;7.184;2023-11-19T22:47:28;0.50;;;0.50;;
8656;SDS011;4366;50.764;7.184;2023-11-19T22:52:33;2.53;;;0.80;;
8656;SDS011;4366;50.764;7.184;2023-11-19T22:57:36;0.60;;;0.60;;
8656;SDS011;4366;50.764;7.184;2023-11-19T23:02:59;1.53;;;0.60;;
8656;SDS011;4366;50.764;7.184;2023-11-19T23:08:04;0.63;;;0.63;;
8656;SDS011;4366;50.764;7.184;2023-11-19T23:13:08;0.80;;;0.80;;
8656;SDS011;4366;50.764;7.184;2023-11-19T23:18:10;2.23;;;0.90;;
8656;SDS011;4366;50.764;7.184;2023-11-19T23:23:12;0.73;;;0.70;;
8656;SDS011;4366;50.764;7.184;2023-11-19T23:28:15;0.93;;;0.60;;
8656;SDS011;4366;50.764;7.184;2023-11-19T23:33:17;0.67;;;0.67;;
8656;SDS011;4366;50.764;7.184;2023-11-19T23:38:18;0.50;;;0.50;;
8656;SDS011;4366;50.764;7.184;2023-11-19T23:43:21;0.60;;;0.60;;
8656;SDS011;4366;50.764;7.184;2023-11-19T23:48:22;1.27;;;1.07;;
8656;SDS011;4366;50.764;7.184;2023-11-19T23:53:24;1.30;;;0.80;;
8656;SDS011;4366;50.764;7.184;2023-11-19T23:58:26;0.53;;;0.53;;
